createdAt,value
2022-08-17T00:01:09.913Z,98988.75
2022-08-17T00:03:51.943Z,98985.06
2022-08-17T00:06:29.358Z,98991.50
2022-08-17T00:09:00.868Z,98987.94
2022-08-17T00:12:40.551Z,98991.22
2022-08-17T00:14:37.779Z,98986.75
2022-08-17T00:17:23.350Z,98986.06
2022-08-17T00:19:57.572Z,98982.00
2022-08-17T00:22:46.763Z,98984.88
2022-08-17T00:25:17.355Z,98983.03
2022-08-17T00:27:49.579Z,98983.13
2022-08-17T00:30:16.664Z,98986.25
2022-08-17T00:33:12.633Z,98982.88
2022-08-17T00:35:42.736Z,98990.94
2022-08-17T00:38:12.732Z,98987.16
2022-08-17T00:40:49.432Z,98985.16
2022-08-17T00:43:21.100Z,98984.47
2022-08-17T00:45:50.234Z,98994.19
2022-08-17T00:48:28.957Z,98987.97
2022-08-17T00:51:23.658Z,98986.41
2022-08-17T00:53:56.772Z,98989.66
2022-08-17T00:56:34.771Z,98983.56
2022-08-17T00:59:04.655Z,98990.38
2022-08-17T01:01:34.856Z,98996.31
2022-08-17T01:04:09.182Z,98985.56
2022-08-17T01:06:36.606Z,98985.56
2022-08-17T01:09:07.184Z,98985.34
2022-08-17T01:11:53.803Z,98987.47
2022-08-17T01:14:26.828Z,98987.31
2022-08-17T01:17:01.986Z,98986.75
2022-08-17T01:19:32.953Z,98989.28
2022-08-17T01:22:23.123Z,98984.16
2022-08-17T01:25:03.040Z,98983.53
2022-08-17T01:27:38.679Z,98986.34
2022-08-17T01:30:56.685Z,98995.91
2022-08-17T01:32:58.509Z,98988.28
2022-08-17T01:35:25.679Z,98987.44
2022-08-17T01:37:53.310Z,98994.38
2022-08-17T01:40:50.485Z,98995.34
2022-08-17T01:43:33.315Z,98994.47
2022-08-17T01:46:04.490Z,98994.38
2022-08-17T01:48:34.764Z,98997.31
2022-08-17T01:51:07.436Z,98988.53
2022-08-17T01:53:42.824Z,98991.78
2022-08-17T01:56:22.175Z,99006.88
2022-08-17T01:59:01.446Z,98997.72
2022-08-17T02:01:30.774Z,99001.72
2022-08-17T02:04:03.141Z,98999.31
2022-08-17T02:06:45.002Z,98995.53
2022-08-17T02:09:16.898Z,99000.16
2022-08-17T02:11:58.075Z,98993.16
2022-08-17T02:14:27.282Z,98999.22
2022-08-17T02:16:56.582Z,98991.91
2022-08-17T02:19:25.695Z,98994.44
2022-08-17T02:21:54.986Z,98997.22
2022-08-17T02:25:01.115Z,98989.97
2022-08-17T02:27:53.747Z,98980.13
2022-08-17T02:30:59.779Z,98991.56
2022-08-17T02:33:25.333Z,98996.81
2022-08-17T02:36:13.338Z,98997.66
2022-08-17T02:38:48.408Z,98988.28
2022-08-17T02:41:23.726Z,98983.78
2022-08-17T02:43:51.546Z,98991.59
2022-08-17T02:46:21.677Z,98995.47
2022-08-17T02:48:52.016Z,98992.22
2022-08-17T02:51:44.298Z,98997.81
2022-08-17T02:54:39.672Z,99001.56
2022-08-17T02:56:58.331Z,99002.16
2022-08-17T02:59:31.817Z,99007.25
2022-08-17T03:01:59.982Z,99000.28
2022-08-17T03:04:35.545Z,99002.75
2022-08-17T03:07:13.020Z,99000.16
2022-08-17T03:09:40.180Z,99005.41
2022-08-17T03:12:14.034Z,98999.75
2022-08-17T03:14:42.272Z,99009.09
2022-08-17T03:17:34.794Z,99001.56
2022-08-17T03:20:03.626Z,98996.44
2022-08-17T03:22:38.632Z,99003.97
2022-08-17T03:25:31.346Z,99002.53
2022-08-17T03:28:17.826Z,99000.44
2022-08-17T03:30:45.038Z,99006.84
2022-08-17T03:33:14.044Z,99010.63
2022-08-17T03:35:54.041Z,99011.66
2022-08-17T03:38:22.341Z,99016.53
2022-08-17T03:40:59.709Z,99014.88
2022-08-17T03:43:33.710Z,99022.66
2022-08-17T03:46:46.716Z,99022.31
2022-08-17T03:49:39.919Z,99013.19
2022-08-17T03:52:26.673Z,99016.00
2022-08-17T03:55:14.503Z,99024.75
2022-08-17T03:57:43.549Z,99021.94
2022-08-17T04:00:11.438Z,99030.16
2022-08-17T04:02:39.958Z,99034.25
2022-08-17T04:05:12.359Z,99038.63
2022-08-17T04:07:40.473Z,99051.31
2022-08-17T04:10:16.361Z,99041.72
2022-08-17T04:12:58.868Z,99044.66
2022-08-17T04:15:33.809Z,99044.13
2022-08-17T04:18:01.977Z,99044.56
2022-08-17T04:20:34.073Z,99045.28
2022-08-17T04:23:10.869Z,99038.72
2022-08-17T04:25:50.599Z,99048.63
2022-08-17T04:28:20.829Z,99051.19
2022-08-17T04:30:49.039Z,99050.13
2022-08-17T04:33:24.365Z,99046.16
2022-08-17T04:35:57.183Z,99051.47
2022-08-17T04:38:27.499Z,99052.97
2022-08-17T04:41:16.881Z,99056.38
2022-08-17T04:43:48.046Z,99061.97
2022-08-17T04:46:21.568Z,99065.66
2022-08-17T04:48:51.829Z,99072.56
2022-08-17T04:51:37.611Z,99066.06
2022-08-17T04:54:15.893Z,99068.94
2022-08-17T04:56:43.471Z,99070.34
2022-08-17T04:59:20.491Z,99077.34
2022-08-17T05:01:53.566Z,99081.25
2022-08-17T05:04:33.990Z,99074.03
2022-08-17T05:07:24.008Z,99085.50
2022-08-17T05:09:52.632Z,99090.09
2022-08-17T05:12:25.635Z,99090.38
2022-08-17T05:14:59.687Z,99084.84
2022-08-17T05:17:37.205Z,99082.03
2022-08-17T05:20:11.088Z,99086.03
2022-08-17T05:22:51.572Z,99078.44
2022-08-17T05:25:27.955Z,99078.75
2022-08-17T05:28:02.117Z,99076.75
2022-08-17T05:30:29.513Z,99076.50
2022-08-17T05:33:28.006Z,99082.19
2022-08-17T05:36:08.974Z,99087.00
2022-08-17T05:39:16.124Z,99091.38
2022-08-17T05:41:48.616Z,99093.03
2022-08-17T05:44:24.756Z,99090.09
2022-08-17T05:46:54.560Z,99095.59
2022-08-17T05:49:38.026Z,99085.81
2022-08-17T05:52:26.614Z,99081.97
2022-08-17T05:55:13.817Z,99089.97
2022-08-17T05:57:53.210Z,99092.81
2022-08-17T06:00:32.220Z,99094.50
2022-08-17T06:03:05.678Z,99103.75
2022-08-17T06:06:03.837Z,99101.13
2022-08-17T06:08:41.324Z,99102.41
2022-08-17T06:11:40.520Z,99103.41
2022-08-17T06:14:30.414Z,99096.56
2022-08-17T06:17:04.815Z,99103.53
2022-08-17T06:19:42.696Z,99106.84
2022-08-17T06:22:20.485Z,99101.25
2022-08-17T06:25:12.843Z,99103.09
2022-08-17T06:28:04.345Z,99100.84
2022-08-17T06:30:59.845Z,99101.91
2022-08-17T06:33:38.305Z,99094.19
2022-08-17T06:36:09.832Z,99097.00
2022-08-17T06:39:07.916Z,99094.75
2022-08-17T06:42:02.004Z,99094.81
2022-08-17T06:44:55.501Z,99104.34
2022-08-17T06:47:57.208Z,99093.38
2022-08-17T06:50:47.183Z,99096.09
2022-08-17T06:53:31.972Z,99091.50
2022-08-17T06:56:09.266Z,99092.09
2022-08-17T06:58:40.210Z,99084.53
2022-08-17T07:01:25.638Z,99095.84
2022-08-17T07:04:26.443Z,99103.09
2022-08-17T07:07:23.804Z,99101.44
2022-08-17T07:09:57.075Z,99096.28
2022-08-17T07:12:38.765Z,99102.91
2022-08-17T07:15:16.824Z,99099.50
2022-08-17T07:17:51.244Z,99099.88
2022-08-17T07:20:22.810Z,99102.75
2022-08-17T07:23:17.886Z,99099.53
2022-08-17T07:25:46.996Z,99102.50
2022-08-17T07:28:23.190Z,99111.09
2022-08-17T07:30:55.405Z,99105.13
2022-08-17T07:33:32.508Z,99112.91
2022-08-17T07:36:29.562Z,99110.44
2022-08-17T07:39:03.043Z,99109.16
2022-08-17T07:41:53.168Z,99104.84
2022-08-17T07:44:27.580Z,99116.22
2022-08-17T07:47:16.824Z,99119.97
2022-08-17T07:49:46.675Z,99116.00
2022-08-17T07:52:50.398Z,99113.97
2022-08-17T07:55:31.583Z,99112.81
2022-08-17T07:58:03.751Z,99108.28
2022-08-17T08:00:34.027Z,99107.56
2022-08-17T08:03:26.077Z,99107.97
2022-08-17T08:05:57.810Z,99108.13
2022-08-17T08:08:28.760Z,99107.03
2022-08-17T08:11:13.198Z,99098.88
2022-08-17T08:13:45.553Z,99108.81
2022-08-17T08:16:26.836Z,99119.72
2022-08-17T08:19:00.368Z,99116.25
2022-08-17T08:21:46.830Z,99124.97
2022-08-17T08:24:43.152Z,99117.13
2022-08-17T08:27:40.119Z,99122.56
2022-08-17T08:30:12.487Z,99124.34
2022-08-17T08:32:51.619Z,99124.34
2022-08-17T08:35:27.187Z,99117.88
2022-08-17T08:38:42.878Z,99128.13
2022-08-17T08:41:47.401Z,99124.38
2022-08-17T08:45:00.953Z,99126.00
2022-08-17T08:47:35.504Z,99121.50
2022-08-17T08:50:37.485Z,99114.28
2022-08-17T08:53:30.374Z,99122.31
2022-08-17T08:56:05.526Z,99120.69
2022-08-17T08:58:57.454Z,99124.38
2022-08-17T09:01:56.462Z,99122.72
2022-08-17T09:05:12.794Z,99115.63
2022-08-17T09:08:12.800Z,99122.81
2022-08-17T09:10:52.814Z,99123.28
2022-08-17T09:13:57.924Z,99123.28
2022-08-17T09:16:39.498Z,99119.50
2022-08-17T09:19:20.452Z,99118.88
2022-08-17T09:21:58.823Z,99106.47
2022-08-17T09:24:36.020Z,99115.75
2022-08-17T09:27:09.513Z,99115.06
2022-08-17T09:29:45.095Z,99120.72
2022-08-17T09:32:56.911Z,99110.81
2022-08-17T09:35:37.532Z,99117.50
2022-08-17T09:38:32.672Z,99114.38
2022-08-17T09:41:20.816Z,99119.38
2022-08-17T09:44:02.953Z,99115.47
2022-08-17T09:46:45.926Z,99117.00
2022-08-17T09:49:37.899Z,99119.38
2022-08-17T09:52:51.602Z,99118.13
2022-08-17T09:55:18.852Z,99112.31
2022-08-17T09:58:29.101Z,99110.00
2022-08-17T10:01:17.459Z,99102.53
2022-08-17T10:04:13.176Z,99100.59
2022-08-17T10:07:17.925Z,99106.59
2022-08-17T10:10:26.115Z,99111.81
2022-08-17T10:13:24.300Z,99113.81
2022-08-17T10:16:03.688Z,99104.03
2022-08-17T10:18:53.263Z,99102.81
2022-08-17T10:21:43.073Z,99106.84
2022-08-17T10:24:36.801Z,99112.97
2022-08-17T10:27:19.736Z,99101.19
2022-08-17T10:30:21.282Z,99098.22
2022-08-17T10:32:56.756Z,99094.03
2022-08-17T10:35:57.083Z,99102.28
2022-08-17T10:38:37.954Z,99093.44
2022-08-17T10:41:42.681Z,99089.69
2022-08-17T10:44:39.648Z,99089.72
2022-08-17T10:47:13.145Z,99097.38
2022-08-17T10:49:54.092Z,99092.19
2022-08-17T10:52:24.850Z,99085.53
2022-08-17T10:54:54.904Z,99095.63
2022-08-17T10:57:41.331Z,99096.50
2022-08-17T11:00:47.765Z,99102.09
2022-08-17T11:03:37.846Z,99101.22
2022-08-17T11:06:17.322Z,99091.22
2022-08-17T11:09:09.535Z,99094.00
2022-08-17T11:12:01.977Z,99091.72
2022-08-17T11:14:48.120Z,99096.50
2022-08-17T11:17:39.203Z,99097.66
2022-08-17T11:20:32.598Z,99095.66
2022-08-17T11:23:30.190Z,99093.16
2022-08-17T11:26:08.522Z,99090.09
2022-08-17T11:28:52.490Z,99089.22
2022-08-17T11:31:39.004Z,99076.31
2022-08-17T11:34:26.885Z,99075.66
2022-08-17T11:37:24.956Z,99074.38
2022-08-17T11:40:16.399Z,99066.91
2022-08-17T11:42:48.907Z,99073.97
2022-08-17T11:45:34.313Z,99076.22
2022-08-17T11:48:54.767Z,99071.31
2022-08-17T11:51:44.394Z,99066.63
2022-08-17T11:54:33.410Z,99069.44
2022-08-17T11:57:27.148Z,99059.91
2022-08-17T12:00:01.110Z,99060.91
2022-08-17T12:03:11.839Z,99055.19
2022-08-17T12:06:21.565Z,99059.06
2022-08-17T12:09:21.338Z,99052.78
2022-08-17T12:12:14.302Z,99051.19
2022-08-17T12:15:12.916Z,99060.22
2022-08-17T12:17:51.158Z,99051.41
2022-08-17T12:20:44.379Z,99053.88
2022-08-17T12:23:47.817Z,99049.72
2022-08-17T12:26:14.994Z,99041.78
2022-08-17T12:28:47.067Z,99045.94
2022-08-17T12:31:43.918Z,99044.63
2022-08-17T12:34:22.282Z,99036.75
2022-08-17T12:37:00.721Z,99048.66
2022-08-17T12:39:29.952Z,99039.63
2022-08-17T12:42:02.894Z,99032.56
2022-08-17T12:44:36.824Z,99029.19
2022-08-17T12:47:22.778Z,99026.25
2022-08-17T12:49:54.922Z,99037.53
2022-08-17T12:52:28.684Z,99028.84
2022-08-17T12:55:23.612Z,99028.31
2022-08-17T12:58:01.730Z,99026.03
2022-08-17T13:00:41.549Z,99022.50
2022-08-17T13:03:23.923Z,99020.03
2022-08-17T13:06:12.583Z,99024.88
2022-08-17T13:08:47.887Z,99028.16
2022-08-17T13:11:16.830Z,99018.53
2022-08-17T13:14:09.081Z,99020.88
2022-08-17T13:16:38.237Z,99006.22
2022-08-17T13:19:29.726Z,99015.91
2022-08-17T13:22:12.814Z,99009.25
2022-08-17T13:24:54.846Z,99011.00
2022-08-17T13:27:26.583Z,99016.72
2022-08-17T13:29:58.363Z,99018.09
2022-08-17T13:32:33.448Z,99016.38
2022-08-17T13:35:41.038Z,99025.31
2022-08-17T13:38:15.091Z,99018.69
2022-08-17T13:41:23.619Z,99009.84
2022-08-17T13:43:51.935Z,99012.38
2022-08-17T13:46:31.370Z,99002.69
2022-08-17T13:49:06.572Z,99014.09
2022-08-17T13:51:44.160Z,99013.13
2022-08-17T13:54:32.837Z,99018.00
2022-08-17T13:57:12.445Z,99013.28
2022-08-17T14:00:10.080Z,99005.09
2022-08-17T14:02:37.139Z,99010.41
2022-08-17T14:05:06.697Z,99000.03
2022-08-17T14:07:38.481Z,99006.66
2022-08-17T14:10:15.711Z,99016.34
2022-08-17T14:12:47.170Z,99010.63
2022-08-17T14:15:24.902Z,99003.16
2022-08-17T14:18:11.979Z,99004.97
2022-08-17T14:20:42.392Z,99006.41
2022-08-17T14:23:11.604Z,99009.00
2022-08-17T14:25:38.679Z,98995.63
2022-08-17T14:28:15.272Z,98997.22
2022-08-17T14:30:58.794Z,98982.19
2022-08-17T14:33:38.121Z,98989.97
2022-08-17T14:36:08.483Z,98991.81
2022-08-17T14:38:36.200Z,98993.28
2022-08-17T14:41:09.058Z,98997.00
2022-08-17T14:43:40.230Z,98990.13
2022-08-17T14:46:42.182Z,98996.44
2022-08-17T14:49:13.148Z,98997.03
2022-08-17T14:51:44.026Z,98986.25
2022-08-17T14:54:32.693Z,98993.34
2022-08-17T14:57:11.577Z,99001.75
2022-08-17T14:59:59.726Z,98998.75
2022-08-17T15:02:29.631Z,98993.81
2022-08-17T15:05:05.564Z,98995.13
2022-08-17T15:07:32.762Z,98992.34
2022-08-17T15:10:06.623Z,98989.84
2022-08-17T15:12:35.927Z,98989.69
2022-08-17T15:15:05.499Z,98997.31
2022-08-17T15:17:44.880Z,98998.09
2022-08-17T15:20:21.885Z,98990.63
2022-08-17T15:22:50.227Z,98994.63
2022-08-17T15:25:19.578Z,98992.31
2022-08-17T15:27:49.204Z,98990.41
2022-08-17T15:30:18.535Z,98995.53
2022-08-17T15:32:54.470Z,98997.00
2022-08-17T15:35:32.946Z,99000.94
2022-08-17T15:38:11.153Z,98994.75
2022-08-17T15:40:43.550Z,98991.13
2022-08-17T15:43:28.827Z,98993.38
2022-08-17T15:46:04.802Z,98991.47
2022-08-17T15:48:44.027Z,98993.78
2022-08-17T15:51:21.078Z,98992.19
2022-08-17T15:53:51.421Z,98995.84
2022-08-17T15:56:19.332Z,98990.03
2022-08-17T15:58:48.739Z,98995.34
2022-08-17T16:01:51.790Z,98980.91
2022-08-17T16:04:30.249Z,98981.75
2022-08-17T16:07:00.288Z,98988.78
2022-08-17T16:09:36.755Z,98986.94
2022-08-17T16:12:18.886Z,98993.16
2022-08-17T16:14:47.916Z,98982.34
2022-08-17T16:17:40.261Z,98988.72
2022-08-17T16:20:19.894Z,99000.75
2022-08-17T16:22:50.015Z,98990.56
2022-08-17T16:25:21.122Z,98989.16
2022-08-17T16:27:55.597Z,98999.25
2022-08-17T16:30:28.981Z,98992.72
2022-08-17T16:32:58.220Z,98988.09
2022-08-17T16:35:27.499Z,98997.81
2022-08-17T16:37:57.673Z,99001.00
2022-08-17T16:40:39.395Z,98997.16
2022-08-17T16:43:15.447Z,99000.44
2022-08-17T16:45:52.320Z,98996.13
2022-08-17T16:48:20.142Z,99004.00
2022-08-17T16:51:03.207Z,99001.75
2022-08-17T16:53:37.776Z,99004.56
2022-08-17T16:56:05.280Z,99005.81
2022-08-17T16:58:34.337Z,99005.56
2022-08-17T17:01:01.725Z,99004.38
2022-08-17T17:03:44.477Z,99003.75
2022-08-17T17:07:01.390Z,98999.09
2022-08-17T17:09:39.053Z,98999.19
2022-08-17T17:12:18.154Z,98999.41
2022-08-17T17:14:48.736Z,99000.66
2022-08-17T17:17:46.826Z,99010.69
2022-08-17T17:20:16.882Z,99019.41
2022-08-17T17:22:55.039Z,99013.97
2022-08-17T17:25:34.296Z,99013.88
2022-08-17T17:28:02.820Z,99003.06
2022-08-17T17:31:29.029Z,99016.50
2022-08-17T17:34:00.983Z,99007.41
2022-08-17T17:36:51.806Z,99007.25
2022-08-17T17:39:31.151Z,99006.97
2022-08-17T17:42:03.157Z,99005.41
2022-08-17T17:44:47.323Z,99010.53
2022-08-17T17:47:38.907Z,99012.22
2022-08-17T17:50:09.455Z,99015.63
2022-08-17T17:53:19.761Z,99011.91
2022-08-17T17:56:21.051Z,99018.03
2022-08-17T17:59:18.125Z,99014.00
2022-08-17T18:01:56.950Z,99023.28
2022-08-17T18:04:49.911Z,99029.19
2022-08-17T18:07:43.171Z,99026.22
2022-08-17T18:10:41.583Z,99028.28
2022-08-17T18:13:17.847Z,99036.47
2022-08-17T18:15:54.479Z,99038.78
2022-08-17T18:18:44.366Z,99044.19
2022-08-17T18:21:21.019Z,99039.06
2022-08-17T18:23:59.489Z,99048.63
2022-08-17T18:26:38.783Z,99051.06
2022-08-17T18:29:30.388Z,99052.16
2022-08-17T18:32:19.526Z,99058.78
2022-08-17T18:35:00.569Z,99069.59
2022-08-17T18:37:52.148Z,99067.84
2022-08-17T18:40:35.716Z,99060.97
2022-08-17T18:43:03.494Z,99063.44
2022-08-17T18:46:17.360Z,99058.25
2022-08-17T18:49:08.016Z,99057.88
2022-08-17T18:51:43.353Z,99067.19
2022-08-17T18:54:29.640Z,99073.38
2022-08-17T18:57:00.041Z,99067.78
2022-08-17T19:00:01.761Z,99066.97
2022-08-17T19:02:46.131Z,99066.56
2022-08-17T19:05:53.101Z,99068.78
2022-08-17T19:08:29.202Z,99075.72
2022-08-17T19:11:01.568Z,99077.22
2022-08-17T19:13:36.699Z,99083.75
2022-08-17T19:16:15.832Z,99079.16
2022-08-17T19:18:52.808Z,99082.94
2022-08-17T19:21:52.808Z,99070.19
2022-08-17T19:24:26.667Z,99073.63
2022-08-17T19:27:21.155Z,99084.28
2022-08-17T19:30:07.747Z,99103.25
2022-08-17T19:32:36.157Z,99100.25
2022-08-17T19:35:17.491Z,99088.41
2022-08-17T19:38:12.949Z,99082.13
2022-08-17T19:41:08.341Z,99075.94
2022-08-17T19:43:56.510Z,99072.72
2022-08-17T19:46:48.653Z,99079.22
2022-08-17T19:49:47.165Z,99081.63
2022-08-17T19:52:37.764Z,99075.59
2022-08-17T19:55:22.481Z,99074.75
2022-08-17T19:58:04.947Z,99080.31
2022-08-17T20:04:05.960Z,99087.69
2022-08-17T20:06:42.507Z,99083.31
2022-08-17T20:09:35.599Z,99083.91
2022-08-17T20:12:19.981Z,99073.94
2022-08-17T20:14:59.529Z,99080.91
2022-08-17T20:17:34.915Z,99090.91
2022-08-17T20:20:19.764Z,99091.75
2022-08-17T20:22:57.842Z,99092.09
2022-08-17T20:26:20.900Z,99085.66
2022-08-17T20:29:17.183Z,99089.56
2022-08-17T20:32:05.862Z,99091.06
2022-08-17T20:34:38.161Z,99084.31
2022-08-17T20:37:10.280Z,99091.75
2022-08-17T20:39:46.308Z,99094.47
2022-08-17T20:42:23.362Z,99094.63
2022-08-17T20:44:59.620Z,99089.03
2022-08-17T20:48:22.149Z,99085.66
2022-08-17T20:51:01.256Z,99084.31
2022-08-17T20:54:00.987Z,99082.25
2022-08-17T20:56:49.325Z,99088.03
2022-08-17T20:59:42.689Z,99085.66
2022-08-17T21:02:20.446Z,99080.75
2022-08-17T21:04:50.260Z,99078.22
2022-08-17T21:07:43.412Z,99084.63
2022-08-17T21:10:18.495Z,99081.59
2022-08-17T21:13:15.648Z,99072.47
2022-08-17T21:16:05.580Z,99069.44
2022-08-17T21:18:52.999Z,99061.84
2022-08-17T21:21:48.106Z,99066.72
2022-08-17T21:24:34.843Z,99063.97
2022-08-17T21:27:26.308Z,99073.75
2022-08-17T21:29:59.544Z,99071.06
2022-08-17T21:32:32.280Z,99061.59
2022-08-17T21:35:07.008Z,99060.22
2022-08-17T21:37:46.823Z,99056.81
2022-08-17T21:40:37.082Z,99071.69
2022-08-17T21:43:33.715Z,99071.53
2022-08-17T21:46:22.247Z,99063.09
2022-08-17T21:49:02.917Z,99062.38
2022-08-17T21:51:50.292Z,99058.41
2022-08-17T21:54:56.926Z,99061.19
2022-08-17T21:57:53.237Z,99073.38
2022-08-17T22:00:32.250Z,99069.28
2022-08-17T22:03:03.445Z,99051.50
2022-08-17T22:05:50.729Z,99064.66
2022-08-17T22:08:25.188Z,99069.19
2022-08-17T22:11:01.750Z,99057.56
2022-08-17T22:13:31.055Z,99054.41
2022-08-17T22:16:28.746Z,99068.22
2022-08-17T22:18:59.393Z,99075.59
2022-08-17T22:21:44.853Z,99077.16
2022-08-17T22:25:08.664Z,99076.47
2022-08-17T22:28:01.359Z,99089.31
2022-08-17T22:30:34.965Z,99100.28
2022-08-17T22:33:46.657Z,99096.00
2022-08-17T22:36:42.501Z,99103.16
2022-08-17T22:39:12.563Z,99102.38
2022-08-17T22:42:06.605Z,99103.44
2022-08-17T22:44:38.011Z,99103.22
2022-08-17T22:47:41.297Z,99109.38
2022-08-17T22:50:33.536Z,99110.84
2022-08-17T22:53:23.079Z,99112.72
2022-08-17T22:56:26.192Z,99101.03
2022-08-17T22:59:15.291Z,99105.47
2022-08-17T23:02:32.102Z,99103.34
2022-08-17T23:05:13.433Z,99111.13
2022-08-17T23:07:42.433Z,99116.78
2022-08-17T23:10:12.473Z,99113.44
2022-08-17T23:12:44.876Z,99111.72
2022-08-17T23:15:16.196Z,99116.78
2022-08-17T23:17:48.114Z,99124.97
2022-08-17T23:20:18.474Z,99126.09
2022-08-17T23:22:52.372Z,99134.56
2022-08-17T23:25:34.918Z,99136.66
2022-08-17T23:28:06.994Z,99135.94
2022-08-17T23:30:42.832Z,99141.50
2022-08-17T23:33:25.878Z,99134.97
2022-08-17T23:36:00.837Z,99139.66
2022-08-17T23:38:36.692Z,99137.25
2022-08-17T23:41:17.863Z,99140.84
2022-08-17T23:43:55.413Z,99134.72
2022-08-17T23:46:24.769Z,99129.72
2022-08-17T23:49:03.557Z,99136.41
2022-08-17T23:51:42.775Z,99129.88
2022-08-17T23:54:30.077Z,99125.78
2022-08-17T23:56:57.183Z,99121.53
2022-08-17T23:59:24.481Z,99130.78
